<?xml version="1.0" encoding="UTF-8" standalone="no" ?>
<gpx xmlns="http://www.topografix.com/GPX/1/1" creator="MapSource 6.16.3" version="1.1" xmlns:xsi="http://www.w3.org/2001/XMLSchema-instance" xsi:schemaLocation="http://www.topografix.com/GPX/1/1 http://www.topografix.com/GPX/1/1/gpx.xsd">

  <metadata>
    <link href="http://www.garmin.com">
      <text>Garmin International</text>
    </link>
    <time>2013-06-20T19:34:34Z</time>
    <bounds maxlat="53.30859387293458" maxlon="29.714861875399947" minlat="52.630694713443518" minlon="28.636580910533667"/>
  </metadata>

  <trk>
    <name>vbobrujsk</name>
    <extensions>
      <gpxx:TrackExtension xmlns:gpxx="http://www.garmin.com/xmlschemas/GpxExtensions/v3">
        <gpxx:DisplayColor>Magenta</gpxx:DisplayColor>
      </gpxx:TrackExtension>
    </extensions>
    <trkseg>
      <trkpt lat="52.630694713443518" lon="29.714861875399947">
        <ele>0</ele>
        <time>2010-01-01T00:00:00Z</time>
      </trkpt>
      <trkpt lat="52.631033342331648" lon="29.713274007663131">
        <ele>0</ele>
        <time>2010-01-01T00:00:40Z</time>
      </trkpt>
      <trkpt lat="52.631189664825797" lon="29.711428647860885">
        <ele>0</ele>
        <time>2010-01-01T00:01:26Z</time>
      </trkpt>
      <trkpt lat="52.631892906501889" lon="29.709433084353805">
        <ele>0</ele>
        <time>2010-01-01T00:02:22Z</time>
      </trkpt>
      <trkpt lat="52.634119810536504" lon="29.704326158389449">
        <ele>0</ele>
        <time>2010-01-01T00:04:55Z</time>
      </trkpt>
      <trkpt lat="52.64175052754581" lon="29.713123803958297">
        <ele>0</ele>
        <time>2010-01-01T00:11:07Z</time>
      </trkpt>
      <trkpt lat="52.645044531673193" lon="29.694369798526168">
        <ele>0</ele>
        <time>2010-01-01T00:19:02Z</time>
      </trkpt>
      <trkpt lat="52.645474188029766" lon="29.691794877871871">
        <ele>0</ele>
        <time>2010-01-01T00:20:06Z</time>
      </trkpt>
      <trkpt lat="52.645344017073512" lon="29.689477449283004">
        <ele>0</ele>
        <time>2010-01-01T00:21:03Z</time>
      </trkpt>
      <trkpt lat="52.651749048382044" lon="29.689348703250289">
        <ele>0</ele>
        <time>2010-01-01T00:25:19Z</time>
      </trkpt>
      <trkpt lat="52.654352467507124" lon="29.688662057742476">
        <ele>0</ele>
        <time>2010-01-01T00:27:05Z</time>
      </trkpt>
      <trkpt lat="52.655315715819597" lon="29.689219957217574">
        <ele>0</ele>
        <time>2010-01-01T00:27:46Z</time>
      </trkpt>
      <trkpt lat="52.656018538400531" lon="29.689949518069625">
        <ele>0</ele>
        <time>2010-01-01T00:28:19Z</time>
      </trkpt>
      <trkpt lat="52.66132889315486" lon="29.684241777285933">
        <ele>0</ele>
        <time>2010-01-01T00:32:33Z</time>
      </trkpt>
      <trkpt lat="52.664139932021499" lon="29.663814073428512">
        <ele>0</ele>
        <time>2010-01-01T00:41:01Z</time>
      </trkpt>
      <trkpt lat="52.666065925732255" lon="29.665444856509566">
        <ele>0</ele>
        <time>2010-01-01T00:42:28Z</time>
      </trkpt>
      <trkpt lat="52.667028922587633" lon="29.6611104067415">
        <ele>0</ele>
        <time>2010-01-01T00:44:20Z</time>
      </trkpt>
      <trkpt lat="52.667809696868062" lon="29.654887681826949">
        <ele>0</ele>
        <time>2010-01-01T00:46:54Z</time>
      </trkpt>
      <trkpt lat="52.669110903516412" lon="29.647506242617965">
        <ele>0</ele>
        <time>2010-01-01T00:50:01Z</time>
      </trkpt>
      <trkpt lat="52.670047748833895" lon="29.644587999209762">
        <ele>0</ele>
        <time>2010-01-01T00:51:21Z</time>
      </trkpt>
      <trkpt lat="52.666976870968938" lon="29.640038972720504">
        <ele>0</ele>
        <time>2010-01-01T00:54:06Z</time>
      </trkpt>
      <trkpt lat="52.67080245539546" lon="29.635575776919723">
        <ele>0</ele>
        <time>2010-01-01T00:57:14Z</time>
      </trkpt>
      <trkpt lat="52.675980878993869" lon="29.627378946170211">
        <ele>0</ele>
        <time>2010-01-01T01:02:01Z</time>
      </trkpt>
      <trkpt lat="52.683396097272635" lon="29.618967538699508">
        <ele>0</ele>
        <time>2010-01-01T01:08:01Z</time>
      </trkpt>
      <trkpt lat="52.682875748723745" lon="29.616650110110641">
        <ele>0</ele>
        <time>2010-01-01T01:09:01Z</time>
      </trkpt>
      <trkpt lat="52.686309814453125" lon="29.613302713260055">
        <ele>0</ele>
        <time>2010-01-01T01:11:41Z</time>
      </trkpt>
      <trkpt lat="52.686309814453125" lon="29.608710771426558">
        <ele>0</ele>
        <time>2010-01-01T01:13:33Z</time>
      </trkpt>
      <trkpt lat="52.686231778934598" lon="29.607637887820601">
        <ele>0</ele>
        <time>2010-01-01T01:13:59Z</time>
      </trkpt>
      <trkpt lat="52.693839529529214" lon="29.601822188124061">
        <ele>0</ele>
        <time>2010-01-01T01:19:34Z</time>
      </trkpt>
      <trkpt lat="52.707473114132881" lon="29.596410496160388">
        <ele>0</ele>
        <time>2010-01-01T01:28:56Z</time>
      </trkpt>
      <trkpt lat="52.718366486951709" lon="29.592805607244372">
        <ele>0</ele>
        <time>2010-01-01T01:36:20Z</time>
      </trkpt>
      <trkpt lat="52.724344963207841" lon="29.589672787114978">
        <ele>0</ele>
        <time>2010-01-01T01:40:32Z</time>
      </trkpt>
      <trkpt lat="52.724370947107673" lon="29.592934353277087">
        <ele>0</ele>
        <time>2010-01-01T01:41:51Z</time>
      </trkpt>
      <trkpt lat="52.723955120891333" lon="29.599757893010974">
        <ele>0</ele>
        <time>2010-01-01T01:44:37Z</time>
      </trkpt>
      <trkpt lat="52.724890792742372" lon="29.590531093999743">
        <ele>0</ele>
        <time>2010-01-01T01:48:24Z</time>
      </trkpt>
      <trkpt lat="52.725015180185437" lon="29.584294958040118">
        <ele>0</ele>
        <time>2010-01-01T01:50:55Z</time>
      </trkpt>
      <trkpt lat="52.731720367446542" lon="29.574596090242267">
        <ele>0</ele>
        <time>2010-01-01T01:56:52Z</time>
      </trkpt>
      <trkpt lat="52.732733907178044" lon="29.572793645784259">
        <ele>0</ele>
        <time>2010-01-01T01:57:51Z</time>
      </trkpt>
      <trkpt lat="52.731190714985132" lon="29.556988645344973">
        <ele>0</ele>
        <time>2010-01-01T02:04:19Z</time>
      </trkpt>
      <trkpt lat="52.728565922006965" lon="29.544543195515871">
        <ele>0</ele>
        <time>2010-01-01T02:09:39Z</time>
      </trkpt>
      <trkpt lat="52.731606541201472" lon="29.528922010213137">
        <ele>0</ele>
        <time>2010-01-01T02:16:17Z</time>
      </trkpt>
      <trkpt lat="52.740476857870817" lon="29.535192595794797">
        <ele>0</ele>
        <time>2010-01-01T02:22:43Z</time>
      </trkpt>
      <trkpt lat="52.745778663083911" lon="29.500088347122073">
        <ele>0</ele>
        <time>2010-01-01T02:37:20Z</time>
      </trkpt>
      <trkpt lat="52.749363603070378" lon="29.505796087905765">
        <ele>0</ele>
        <time>2010-01-01T02:40:39Z</time>
      </trkpt>
      <trkpt lat="52.754169031977654" lon="29.497213019058108">
        <ele>0</ele>
        <time>2010-01-01T02:45:22Z</time>
      </trkpt>
      <trkpt lat="52.760350350290537" lon="29.486999167129397">
        <ele>0</ele>
        <time>2010-01-01T02:51:12Z</time>
      </trkpt>
      <trkpt lat="52.762116333469748" lon="29.482407225295901">
        <ele>0</ele>
        <time>2010-01-01T02:53:24Z</time>
      </trkpt>
      <trkpt lat="52.766530830413103" lon="29.467644346877933">
        <ele>0</ele>
        <time>2010-01-01T03:00:03Z</time>
      </trkpt>
      <trkpt lat="52.76882235892117" lon="29.465651297941804">
        <ele>0</ele>
        <time>2010-01-01T03:01:47Z</time>
      </trkpt>
      <trkpt lat="52.769283195957541" lon="29.465339491143823">
        <ele>0</ele>
        <time>2010-01-01T03:02:07Z</time>
      </trkpt>
      <trkpt lat="52.771535748615861" lon="29.459635941311717">
        <ele>0</ele>
        <time>2010-01-01T03:04:51Z</time>
      </trkpt>
      <trkpt lat="52.779471231624484" lon="29.458715775981545">
        <ele>0</ele>
        <time>2010-01-01T03:10:10Z</time>
      </trkpt>
      <trkpt lat="52.786245988681912" lon="29.460561135783792">
        <ele>0</ele>
        <time>2010-01-01T03:14:45Z</time>
      </trkpt>
      <trkpt lat="52.789619956165552" lon="29.461548188701272">
        <ele>0</ele>
        <time>2010-01-01T03:17:02Z</time>
      </trkpt>
      <trkpt lat="52.795781912282109" lon="29.45880688726902">
        <ele>0</ele>
        <time>2010-01-01T03:21:17Z</time>
      </trkpt>
      <trkpt lat="52.797676138579845" lon="29.456918612122536">
        <ele>0</ele>
        <time>2010-01-01T03:22:46Z</time>
      </trkpt>
      <trkpt lat="52.798739969730377" lon="29.454257860779762">
        <ele>0</ele>
        <time>2010-01-01T03:24:03Z</time>
      </trkpt>
      <trkpt lat="52.799025373533368" lon="29.451296702027321">
        <ele>0</ele>
        <time>2010-01-01T03:25:16Z</time>
      </trkpt>
      <trkpt lat="52.798584317788482" lon="29.448850527405739">
        <ele>0</ele>
        <time>2010-01-01T03:26:17Z</time>
      </trkpt>
      <trkpt lat="52.797001479193568" lon="29.447262659668922">
        <ele>0</ele>
        <time>2010-01-01T03:27:32Z</time>
      </trkpt>
      <trkpt lat="52.796274935826659" lon="29.444258585572243">
        <ele>0</ele>
        <time>2010-01-01T03:28:50Z</time>
      </trkpt>
      <trkpt lat="52.796508455649018" lon="29.441812410950661">
        <ele>0</ele>
        <time>2010-01-01T03:29:50Z</time>
      </trkpt>
      <trkpt lat="52.795859696343541" lon="29.439366236329079">
        <ele>0</ele>
        <time>2010-01-01T03:30:54Z</time>
      </trkpt>
      <trkpt lat="52.796145183965564" lon="29.436319246888161">
        <ele>0</ele>
        <time>2010-01-01T03:32:09Z</time>
      </trkpt>
      <trkpt lat="52.800141088664532" lon="29.431727305054665">
        <ele>0</ele>
        <time>2010-01-01T03:35:24Z</time>
      </trkpt>
      <trkpt lat="52.805252289399505" lon="29.427178278565407">
        <ele>0</ele>
        <time>2010-01-01T03:39:16Z</time>
      </trkpt>
      <trkpt lat="52.806705040857196" lon="29.423680678009987">
        <ele>0</ele>
        <time>2010-01-01T03:40:59Z</time>
      </trkpt>
      <trkpt lat="52.806121408939362" lon="29.422629252076149">
        <ele>0</ele>
        <time>2010-01-01T03:41:33Z</time>
      </trkpt>
      <trkpt lat="52.808443196117878" lon="29.416556730866432">
        <ele>0</ele>
        <time>2010-01-01T03:44:27Z</time>
      </trkpt>
      <trkpt lat="52.815861850976944" lon="29.407482063397765">
        <ele>0</ele>
        <time>2010-01-01T03:50:37Z</time>
      </trkpt>
      <trkpt lat="52.816847478970885" lon="29.406537925824523">
        <ele>0</ele>
        <time>2010-01-01T03:51:22Z</time>
      </trkpt>
      <trkpt lat="52.833962235599756" lon="29.383964454755187">
        <ele>0</ele>
        <time>2010-01-01T04:05:58Z</time>
      </trkpt>
      <trkpt lat="52.834739992395043" lon="29.385509407147765">
        <ele>0</ele>
        <time>2010-01-01T04:06:47Z</time>
      </trkpt>
      <trkpt lat="52.835154812783003" lon="29.389457618817687">
        <ele>0</ele>
        <time>2010-01-01T04:08:24Z</time>
      </trkpt>
      <trkpt lat="52.836865810677409" lon="29.387440597638488">
        <ele>0</ele>
        <time>2010-01-01T04:09:48Z</time>
      </trkpt>
      <trkpt lat="52.842180021107197" lon="29.381775772199035">
        <ele>0</ele>
        <time>2010-01-01T04:14:01Z</time>
      </trkpt>
      <trkpt lat="52.842776225879788" lon="29.379715835675597">
        <ele>0</ele>
        <time>2010-01-01T04:14:56Z</time>
      </trkpt>
      <trkpt lat="52.843994535505772" lon="29.383234893903136">
        <ele>0</ele>
        <time>2010-01-01T04:16:34Z</time>
      </trkpt>
      <trkpt lat="52.844888800755143" lon="29.384007370099425">
        <ele>0</ele>
        <time>2010-01-01T04:17:15Z</time>
      </trkpt>
      <trkpt lat="52.842944702133536" lon="29.379823124036193">
        <ele>0</ele>
        <time>2010-01-01T04:19:22Z</time>
      </trkpt>
      <trkpt lat="52.842187481001019" lon="29.378604060038924">
        <ele>0</ele>
        <time>2010-01-01T04:20:05Z</time>
      </trkpt>
      <trkpt lat="52.842135597020388" lon="29.377617007121444">
        <ele>0</ele>
        <time>2010-01-01T04:20:28Z</time>
      </trkpt>
      <trkpt lat="52.842783685773611" lon="29.376329546794295">
        <ele>0</ele>
        <time>2010-01-01T04:21:09Z</time>
      </trkpt>
      <trkpt lat="52.844624016433954" lon="29.374612933024764">
        <ele>0</ele>
        <time>2010-01-01T04:22:34Z</time>
      </trkpt>
      <trkpt lat="52.846464263275266" lon="29.369806414470077">
        <ele>0</ele>
        <time>2010-01-01T04:24:51Z</time>
      </trkpt>
      <trkpt lat="52.851277990266681" lon="29.36331513337791">
        <ele>0</ele>
        <time>2010-01-01T04:29:00Z</time>
      </trkpt>
      <trkpt lat="52.851109514012933" lon="29.361577061936259">
        <ele>0</ele>
        <time>2010-01-01T04:29:42Z</time>
      </trkpt>
      <trkpt lat="52.851083613932133" lon="29.360997704789042">
        <ele>0</ele>
        <time>2010-01-01T04:29:56Z</time>
      </trkpt>
      <trkpt lat="52.852508956566453" lon="29.35906651429832">
        <ele>0</ele>
        <time>2010-01-01T04:31:10Z</time>
      </trkpt>
      <trkpt lat="52.854621028527617" lon="29.359002141281962">
        <ele>0</ele>
        <time>2010-01-01T04:32:35Z</time>
      </trkpt>
      <trkpt lat="52.85648675635457" lon="29.356770543381572">
        <ele>0</ele>
        <time>2010-01-01T04:34:07Z</time>
      </trkpt>
      <trkpt lat="52.857601046562195" lon="29.358873395249248">
        <ele>0</ele>
        <time>2010-01-01T04:35:14Z</time>
      </trkpt>
      <trkpt lat="52.857795339077711" lon="29.359967736527324">
        <ele>0</ele>
        <time>2010-01-01T04:35:42Z</time>
      </trkpt>
      <trkpt lat="52.856613071635365" lon="29.3565774243325">
        <ele>0</ele>
        <time>2010-01-01T04:37:16Z</time>
      </trkpt>
      <trkpt lat="52.857364593073726" lon="29.354667691513896">
        <ele>0</ele>
        <time>2010-01-01T04:38:12Z</time>
      </trkpt>
      <trkpt lat="52.858556499704719" lon="29.35082676820457">
        <ele>0</ele>
        <time>2010-01-01T04:39:56Z</time>
      </trkpt>
      <trkpt lat="52.862730855122209" lon="29.34507368132472">
        <ele>0</ele>
        <time>2010-01-01T04:43:33Z</time>
      </trkpt>
      <trkpt lat="52.868009191006422" lon="29.33727172203362">
        <ele>0</ele>
        <time>2010-01-01T04:48:17Z</time>
      </trkpt>
      <trkpt lat="52.872021105140448" lon="29.331655260175467">
        <ele>0</ele>
        <time>2010-01-01T04:51:47Z</time>
      </trkpt>
      <trkpt lat="52.872979491949081" lon="29.329123254865408">
        <ele>0</ele>
        <time>2010-01-01T04:52:59Z</time>
      </trkpt>
      <trkpt lat="52.875840067863464" lon="29.32518258690834">
        <ele>0</ele>
        <time>2010-01-01T04:55:28Z</time>
      </trkpt>
      <trkpt lat="52.877394072711468" lon="29.324066787958145">
        <ele>0</ele>
        <time>2010-01-01T04:56:36Z</time>
      </trkpt>
      <trkpt lat="52.878171158954501" lon="29.323122650384903">
        <ele>0</ele>
        <time>2010-01-01T04:57:14Z</time>
      </trkpt>
      <trkpt lat="52.882781038060784" lon="29.323873668909073">
        <ele>0</ele>
        <time>2010-01-01T05:00:20Z</time>
      </trkpt>
      <trkpt lat="52.88916477933526" lon="29.324495019391179">
        <ele>0</ele>
        <time>2010-01-01T05:04:36Z</time>
      </trkpt>
      <trkpt lat="52.894653249531984" lon="29.326570713892579">
        <ele>0</ele>
        <time>2010-01-01T05:08:21Z</time>
      </trkpt>
      <trkpt lat="52.895714733749628" lon="29.327514851465821">
        <ele>0</ele>
        <time>2010-01-01T05:09:09Z</time>
      </trkpt>
      <trkpt lat="52.897682301700115" lon="29.329875195398927">
        <ele>0</ele>
        <time>2010-01-01T05:10:47Z</time>
      </trkpt>
      <trkpt lat="52.90349381044507" lon="29.332128250971437">
        <ele>0</ele>
        <time>2010-01-01T05:14:45Z</time>
      </trkpt>
      <trkpt lat="52.903862111270428" lon="29.331913674250245">
        <ele>0</ele>
        <time>2010-01-01T05:15:01Z</time>
      </trkpt>
      <trkpt lat="52.904172744601965" lon="29.331827843561769">
        <ele>0</ele>
        <time>2010-01-01T05:15:14Z</time>
      </trkpt>
      <trkpt lat="52.904224544763565" lon="29.331441605463624">
        <ele>0</ele>
        <time>2010-01-01T05:15:23Z</time>
      </trkpt>
      <trkpt lat="52.906929384917021" lon="29.326678002253175">
        <ele>0</ele>
        <time>2010-01-01T05:18:01Z</time>
      </trkpt>
      <trkpt lat="52.908145850524306" lon="29.32678529061377">
        <ele>0</ele>
        <time>2010-01-01T05:18:50Z</time>
      </trkpt>
      <trkpt lat="52.909369105473161" lon="29.328376930207014">
        <ele>0</ele>
        <time>2010-01-01T05:19:52Z</time>
      </trkpt>
      <trkpt lat="52.913044150918722" lon="29.329921882599592">
        <ele>0</ele>
        <time>2010-01-01T05:22:24Z</time>
      </trkpt>
      <trkpt lat="52.930185478180647" lon="29.334345767274499">
        <ele>0</ele>
        <time>2010-01-01T05:33:58Z</time>
      </trkpt>
      <trkpt lat="52.935410672798753" lon="29.335053870454431">
        <ele>0</ele>
        <time>2010-01-01T05:37:28Z</time>
      </trkpt>
      <trkpt lat="52.941501634195447" lon="29.334302851930261">
        <ele>0</ele>
        <time>2010-01-01T05:41:33Z</time>
      </trkpt>
      <trkpt lat="52.950616618618369" lon="29.334217021241784">
        <ele>0</ele>
        <time>2010-01-01T05:47:38Z</time>
      </trkpt>
      <trkpt lat="52.972440663725138" lon="29.333567675203085">
        <ele>0</ele>
        <time>2010-01-01T06:02:11Z</time>
      </trkpt>
      <trkpt lat="52.973422687500715" lon="29.32245260104537">
        <ele>0</ele>
        <time>2010-01-01T06:06:42Z</time>
      </trkpt>
      <trkpt lat="52.973035024479032" lon="29.31970601901412">
        <ele>0</ele>
        <time>2010-01-01T06:07:50Z</time>
      </trkpt>
      <trkpt lat="52.972078816965222" lon="29.317388590425253">
        <ele>0</ele>
        <time>2010-01-01T06:08:58Z</time>
      </trkpt>
      <trkpt lat="52.973448503762484" lon="29.313311632722616">
        <ele>0</ele>
        <time>2010-01-01T06:10:50Z</time>
      </trkpt>
      <trkpt lat="52.978304727002978" lon="29.283196376636624">
        <ele>0</ele>
        <time>2010-01-01T06:23:22Z</time>
      </trkpt>
      <trkpt lat="52.981198746711016" lon="29.276501582935452">
        <ele>0</ele>
        <time>2010-01-01T06:26:41Z</time>
      </trkpt>
      <trkpt lat="52.981793023645878" lon="29.272124217823148">
        <ele>0</ele>
        <time>2010-01-01T06:28:29Z</time>
      </trkpt>
      <trkpt lat="52.981870472431183" lon="29.262940334156156">
        <ele>0</ele>
        <time>2010-01-01T06:32:10Z</time>
      </trkpt>
      <trkpt lat="52.984815957024693" lon="29.254271434620023">
        <ele>0</ele>
        <time>2010-01-01T06:36:10Z</time>
      </trkpt>
      <trkpt lat="52.985746013000607" lon="29.247490810230374">
        <ele>0</ele>
        <time>2010-01-01T06:38:58Z</time>
      </trkpt>
      <trkpt lat="52.98631438985467" lon="29.241439746692777">
        <ele>0</ele>
        <time>2010-01-01T06:41:25Z</time>
      </trkpt>
      <trkpt lat="52.986753601580858" lon="29.232470439746976">
        <ele>0</ele>
        <time>2010-01-01T06:45:02Z</time>
      </trkpt>
      <trkpt lat="52.995030395686626" lon="29.224528921768069">
        <ele>0</ele>
        <time>2010-01-01T06:51:25Z</time>
      </trkpt>
      <trkpt lat="52.997664911672473" lon="29.232382429763675">
        <ele>0</ele>
        <time>2010-01-01T06:55:01Z</time>
      </trkpt>
      <trkpt lat="53.002711236476898" lon="29.239597907289863">
        <ele>0</ele>
        <time>2010-01-01T06:59:28Z</time>
      </trkpt>
      <trkpt lat="53.006584933027625" lon="29.244962241500616">
        <ele>0</ele>
        <time>2010-01-01T07:02:50Z</time>
      </trkpt>
      <trkpt lat="53.014138117432594" lon="29.250168744474649">
        <ele>0</ele>
        <time>2010-01-01T07:08:17Z</time>
      </trkpt>
      <trkpt lat="53.016719911247492" lon="29.252700749784708">
        <ele>0</ele>
        <time>2010-01-01T07:10:17Z</time>
      </trkpt>
      <trkpt lat="53.018965926021338" lon="29.256949368864298">
        <ele>0</ele>
        <time>2010-01-01T07:12:33Z</time>
      </trkpt>
      <trkpt lat="53.019249904900789" lon="29.25815099850297">
        <ele>0</ele>
        <time>2010-01-01T07:13:04Z</time>
      </trkpt>
      <trkpt lat="53.019172456115484" lon="29.261670056730509">
        <ele>0</ele>
        <time>2010-01-01T07:14:29Z</time>
      </trkpt>
      <trkpt lat="53.019637148827314" lon="29.262056294828653">
        <ele>0</ele>
        <time>2010-01-01T07:14:50Z</time>
      </trkpt>
      <trkpt lat="53.02046318538487" lon="29.261798802763224">
        <ele>0</ele>
        <time>2010-01-01T07:15:23Z</time>
      </trkpt>
      <trkpt lat="53.032938223332167" lon="29.259422449395061">
        <ele>0</ele>
        <time>2010-01-01T07:23:46Z</time>
      </trkpt>
      <trkpt lat="53.034022087231278" lon="29.258049158379436">
        <ele>0</ele>
        <time>2010-01-01T07:24:41Z</time>
      </trkpt>
      <trkpt lat="53.038202561438084" lon="29.257920412346721">
        <ele>0</ele>
        <time>2010-01-01T07:27:28Z</time>
      </trkpt>
      <trkpt lat="53.040834562852979" lon="29.259036211296916">
        <ele>0</ele>
        <time>2010-01-01T07:29:17Z</time>
      </trkpt>
      <trkpt lat="53.050966188311577" lon="29.256117967888713">
        <ele>0</ele>
        <time>2010-01-01T07:36:08Z</time>
      </trkpt>
      <trkpt lat="53.055273983627558" lon="29.251654772087932">
        <ele>0</ele>
        <time>2010-01-01T07:39:31Z</time>
      </trkpt>
      <trkpt lat="53.05928623303771" lon="29.246752196922898">
        <ele>0</ele>
        <time>2010-01-01T07:42:51Z</time>
      </trkpt>
      <trkpt lat="53.06457320228219" lon="29.242331916466355">
        <ele>0</ele>
        <time>2010-01-01T07:46:48Z</time>
      </trkpt>
      <trkpt lat="53.067100346088409" lon="29.241602355614305">
        <ele>0</ele>
        <time>2010-01-01T07:48:30Z</time>
      </trkpt>
      <trkpt lat="53.069885233417153" lon="29.240572387352586">
        <ele>0</ele>
        <time>2010-01-01T07:50:24Z</time>
      </trkpt>
      <trkpt lat="53.07616931386292" lon="29.241854147985578">
        <ele>0</ele>
        <time>2010-01-01T07:54:38Z</time>
      </trkpt>
      <trkpt lat="53.078386411070824" lon="29.245587782934308">
        <ele>0</ele>
        <time>2010-01-01T07:56:44Z</time>
      </trkpt>
      <trkpt lat="53.080680789425969" lon="29.247175650671124">
        <ele>0</ele>
        <time>2010-01-01T07:58:24Z</time>
      </trkpt>
      <trkpt lat="53.082304866984487" lon="29.249364333227277">
        <ele>0</ele>
        <time>2010-01-01T07:59:47Z</time>
      </trkpt>
      <trkpt lat="53.081222176551819" lon="29.253140883520246">
        <ele>0</ele>
        <time>2010-01-01T08:01:28Z</time>
      </trkpt>
      <trkpt lat="53.082536878064275" lon="29.249664740636945">
        <ele>0</ele>
        <time>2010-01-01T08:03:07Z</time>
      </trkpt>
      <trkpt lat="53.08289771899581" lon="29.25052304752171">
        <ele>0</ele>
        <time>2010-01-01T08:03:32Z</time>
      </trkpt>
      <trkpt lat="53.086205385625362" lon="29.250065311789513">
        <ele>0</ele>
        <time>2010-01-01T08:05:45Z</time>
      </trkpt>
      <trkpt lat="53.088215868920088" lon="29.250279888510704">
        <ele>0</ele>
        <time>2010-01-01T08:07:05Z</time>
      </trkpt>
      <trkpt lat="53.090200368314981" lon="29.24963615834713">
        <ele>0</ele>
        <time>2010-01-01T08:08:26Z</time>
      </trkpt>
      <trkpt lat="53.099937792867422" lon="29.244954781606793">
        <ele>0</ele>
        <time>2010-01-01T08:15:12Z</time>
      </trkpt>
      <trkpt lat="53.103444948792458" lon="29.245103057473898">
        <ele>0</ele>
        <time>2010-01-01T08:17:32Z</time>
      </trkpt>
      <trkpt lat="53.103728340938687" lon="29.241390880197287">
        <ele>0</ele>
        <time>2010-01-01T08:19:02Z</time>
      </trkpt>
      <trkpt lat="53.114238241687417" lon="29.2459352966398">
        <ele>0</ele>
        <time>2010-01-01T08:26:17Z</time>
      </trkpt>
      <trkpt lat="53.121060524135828" lon="29.248849265277386">
        <ele>0</ele>
        <time>2010-01-01T08:30:59Z</time>
      </trkpt>
      <trkpt lat="53.120841588824987" lon="29.251316897571087">
        <ele>0</ele>
        <time>2010-01-01T08:31:59Z</time>
      </trkpt>
      <trkpt lat="53.121060524135828" lon="29.252110831439495">
        <ele>0</ele>
        <time>2010-01-01T08:32:20Z</time>
      </trkpt>
      <trkpt lat="53.121987646445632" lon="29.252046458423138">
        <ele>0</ele>
        <time>2010-01-01T08:32:57Z</time>
      </trkpt>
      <trkpt lat="53.124665999785066" lon="29.252089373767376">
        <ele>0</ele>
        <time>2010-01-01T08:34:44Z</time>
      </trkpt>
      <trkpt lat="53.126468611881137" lon="29.252196662127972">
        <ele>0</ele>
        <time>2010-01-01T08:35:56Z</time>
      </trkpt>
      <trkpt lat="53.130191434174776" lon="29.253850411623716">
        <ele>0</ele>
        <time>2010-01-01T08:38:31Z</time>
      </trkpt>
      <trkpt lat="53.130603404715657" lon="29.253893326967955">
        <ele>0</ele>
        <time>2010-01-01T08:38:47Z</time>
      </trkpt>
      <trkpt lat="53.130951002240181" lon="29.253313969820738">
        <ele>0</ele>
        <time>2010-01-01T08:39:07Z</time>
      </trkpt>
      <trkpt lat="53.132811617106199" lon="29.254725314676762">
        <ele>0</ele>
        <time>2010-01-01T08:40:29Z</time>
      </trkpt>
      <trkpt lat="53.133500358089805" lon="29.254124499857426">
        <ele>0</ele>
        <time>2010-01-01T08:41:00Z</time>
      </trkpt>
      <trkpt lat="53.133712839335203" lon="29.253748990595341">
        <ele>0</ele>
        <time>2010-01-01T08:41:12Z</time>
      </trkpt>
      <trkpt lat="53.133983155712485" lon="29.253684617578983">
        <ele>0</ele>
        <time>2010-01-01T08:41:23Z</time>
      </trkpt>
      <trkpt lat="53.134369309991598" lon="29.254285432398319">
        <ele>0</ele>
        <time>2010-01-01T08:41:44Z</time>
      </trkpt>
      <trkpt lat="53.135251170024276" lon="29.253791905939579">
        <ele>0</ele>
        <time>2010-01-01T08:42:22Z</time>
      </trkpt>
      <trkpt lat="53.135424926877022" lon="29.253180362284184">
        <ele>0</ele>
        <time>2010-01-01T08:42:38Z</time>
      </trkpt>
      <trkpt lat="53.136332519352436" lon="29.251828528940678">
        <ele>0</ele>
        <time>2010-01-01T08:43:26Z</time>
      </trkpt>
      <trkpt lat="53.13709837384522" lon="29.250455237925053">
        <ele>0</ele>
        <time>2010-01-01T08:44:12Z</time>
      </trkpt>
      <trkpt lat="53.137722741812468" lon="29.249307252466679">
        <ele>0</ele>
        <time>2010-01-01T08:44:49Z</time>
      </trkpt>
      <trkpt lat="53.139093602076173" lon="29.248674251139164">
        <ele>0</ele>
        <time>2010-01-01T08:45:46Z</time>
      </trkpt>
      <trkpt lat="53.140483740717173" lon="29.250058270990849">
        <ele>0</ele>
        <time>2010-01-01T08:46:50Z</time>
      </trkpt>
      <trkpt lat="53.140599578619003" lon="29.25102386623621">
        <ele>0</ele>
        <time>2010-01-01T08:47:14Z</time>
      </trkpt>
      <trkpt lat="53.140902081504464" lon="29.251807071268559">
        <ele>0</ele>
        <time>2010-01-01T08:47:36Z</time>
      </trkpt>
      <trkpt lat="53.145496873185039" lon="29.253609515726566">
        <ele>0</ele>
        <time>2010-01-01T08:50:45Z</time>
      </trkpt>
      <trkpt lat="53.147120531648397" lon="29.251398788765073">
        <ele>0</ele>
        <time>2010-01-01T08:52:09Z</time>
      </trkpt>
      <trkpt lat="53.148639081045985" lon="29.249971769750118">
        <ele>0</ele>
        <time>2010-01-01T08:53:19Z</time>
      </trkpt>
      <trkpt lat="53.149803662672639" lon="29.247042881324887">
        <ele>0</ele>
        <time>2010-01-01T08:54:43Z</time>
      </trkpt>
      <trkpt lat="53.145022708922625" lon="29.235927807167172">
        <ele>0</ele>
        <time>2010-01-01T09:00:12Z</time>
      </trkpt>
      <trkpt lat="53.140723882243037" lon="29.2312500346452">
        <ele>0</ele>
        <time>2010-01-01T09:03:37Z</time>
      </trkpt>
      <trkpt lat="53.140028771013021" lon="29.231164120137691">
        <ele>0</ele>
        <time>2010-01-01T09:04:05Z</time>
      </trkpt>
      <trkpt lat="53.139771362766623" lon="29.225799785926938">
        <ele>0</ele>
        <time>2010-01-01T09:06:15Z</time>
      </trkpt>
      <trkpt lat="53.139205332845449" lon="29.216010309755802">
        <ele>0</ele>
        <time>2010-01-01T09:10:11Z</time>
      </trkpt>
      <trkpt lat="53.13887064345181" lon="29.213263727724552">
        <ele>0</ele>
        <time>2010-01-01T09:11:18Z</time>
      </trkpt>
      <trkpt lat="53.135678311809897" lon="29.213478304445744">
        <ele>0</ele>
        <time>2010-01-01T09:13:26Z</time>
      </trkpt>
      <trkpt lat="53.135343538597226" lon="29.211976267397404">
        <ele>0</ele>
        <time>2010-01-01T09:14:04Z</time>
      </trkpt>
      <trkpt lat="53.134596962481737" lon="29.211718775331974">
        <ele>0</ele>
        <time>2010-01-01T09:14:35Z</time>
      </trkpt>
      <trkpt lat="53.132472820580006" lon="29.210731722414494">
        <ele>0</ele>
        <time>2010-01-01T09:16:03Z</time>
      </trkpt>
      <trkpt lat="53.133052093908191" lon="29.205667711794376">
        <ele>0</ele>
        <time>2010-01-01T09:18:07Z</time>
      </trkpt>
      <trkpt lat="53.132756045088172" lon="29.2045733705163">
        <ele>0</ele>
        <time>2010-01-01T09:18:36Z</time>
      </trkpt>
      <trkpt lat="53.134172083809972" lon="29.195325113832951">
        <ele>0</ele>
        <time>2010-01-01T09:22:25Z</time>
      </trkpt>
      <trkpt lat="53.135232981294394" lon="29.180947551503778">
        <ele>0</ele>
        <time>2010-01-01T09:28:13Z</time>
      </trkpt>
      <trkpt lat="53.13700944185257" lon="29.169918308034539">
        <ele>0</ele>
        <time>2010-01-01T09:32:47Z</time>
      </trkpt>
      <trkpt lat="53.134563602507114" lon="29.166506538167596">
        <ele>0</ele>
        <time>2010-01-01T09:34:55Z</time>
      </trkpt>
      <trkpt lat="53.1371252797544" lon="29.166120300069451">
        <ele>0</ele>
        <time>2010-01-01T09:36:38Z</time>
      </trkpt>
      <trkpt lat="53.137552170082927" lon="29.15683382190764">
        <ele>0</ele>
        <time>2010-01-01T09:40:21Z</time>
      </trkpt>
      <trkpt lat="53.139920644462109" lon="29.15807836689055">
        <ele>0</ele>
        <time>2010-01-01T09:42:01Z</time>
      </trkpt>
      <trkpt lat="53.142881048843265" lon="29.145654374733567">
        <ele>0</ele>
        <time>2010-01-01T09:47:22Z</time>
      </trkpt>
      <trkpt lat="53.142417697235942" lon="29.143916303291917">
        <ele>0</ele>
        <time>2010-01-01T09:48:08Z</time>
      </trkpt>
      <trkpt lat="53.146304469555616" lon="29.129518205299973">
        <ele>0</ele>
        <time>2010-01-01T09:54:27Z</time>
      </trkpt>
      <trkpt lat="53.147586733102798" lon="29.124853005632758">
        <ele>0</ele>
        <time>2010-01-01T09:56:30Z</time>
      </trkpt>
      <trkpt lat="53.147084824740887" lon="29.116355767473578">
        <ele>0</ele>
        <time>2010-01-01T09:59:55Z</time>
      </trkpt>
      <trkpt lat="53.145913705229759" lon="29.112128606066108">
        <ele>0</ele>
        <time>2010-01-01T10:01:47Z</time>
      </trkpt>
      <trkpt lat="53.145579099655151" lon="29.110648026689887">
        <ele>0</ele>
        <time>2010-01-01T10:02:25Z</time>
      </trkpt>
      <trkpt lat="53.145064283162355" lon="29.108394971117377">
        <ele>0</ele>
        <time>2010-01-01T10:03:22Z</time>
      </trkpt>
      <trkpt lat="53.144832607358694" lon="29.105626931414008">
        <ele>0</ele>
        <time>2010-01-01T10:04:30Z</time>
      </trkpt>
      <trkpt lat="53.144703945145011" lon="29.103288045153022">
        <ele>0</ele>
        <time>2010-01-01T10:05:26Z</time>
      </trkpt>
      <trkpt lat="53.145759226754308" lon="29.095627656206489">
        <ele>0</ele>
        <time>2010-01-01T10:08:35Z</time>
      </trkpt>
      <trkpt lat="53.147419430315495" lon="29.08785997889936">
        <ele>0</ele>
        <time>2010-01-01T10:11:53Z</time>
      </trkpt>
      <trkpt lat="53.148068357259035" lon="29.08446547575295">
        <ele>0</ele>
        <time>2010-01-01T10:13:18Z</time>
      </trkpt>
      <trkpt lat="53.149548266083002" lon="29.078478785231709">
        <ele>0</ele>
        <time>2010-01-01T10:15:54Z</time>
      </trkpt>
      <trkpt lat="53.153627486899495" lon="29.070517988875508">
        <ele>0</ele>
        <time>2010-01-01T10:20:05Z</time>
      </trkpt>
      <trkpt lat="53.155866377055645" lon="29.06599042005837">
        <ele>0</ele>
        <time>2010-01-01T10:22:26Z</time>
      </trkpt>
      <trkpt lat="53.157088709995151" lon="29.062449904158711">
        <ele>0</ele>
        <time>2010-01-01T10:24:04Z</time>
      </trkpt>
      <trkpt lat="53.157667731866241" lon="29.060389967635274">
        <ele>0</ele>
        <time>2010-01-01T10:24:59Z</time>
      </trkpt>
      <trkpt lat="53.158722762018442" lon="29.057106943801045">
        <ele>0</ele>
        <time>2010-01-01T10:26:28Z</time>
      </trkpt>
      <trkpt lat="53.159623397514224" lon="29.054446192458272">
        <ele>0</ele>
        <time>2010-01-01T10:27:41Z</time>
      </trkpt>
      <trkpt lat="53.160562589764595" lon="29.052708121016622">
        <ele>0</ele>
        <time>2010-01-01T10:28:37Z</time>
      </trkpt>
      <trkpt lat="53.161488873884082" lon="29.052021475508809">
        <ele>0</ele>
        <time>2010-01-01T10:29:18Z</time>
      </trkpt>
      <trkpt lat="53.162337960675359" lon="29.051656695082784">
        <ele>0</ele>
        <time>2010-01-01T10:29:53Z</time>
      </trkpt>
      <trkpt lat="53.163881739601493" lon="29.048695536330342">
        <ele>0</ele>
        <time>2010-01-01T10:31:27Z</time>
      </trkpt>
      <trkpt lat="53.164846580475569" lon="29.047386618331075">
        <ele>0</ele>
        <time>2010-01-01T10:32:17Z</time>
      </trkpt>
      <trkpt lat="53.165734140202403" lon="29.047086210921407">
        <ele>0</ele>
        <time>2010-01-01T10:32:53Z</time>
      </trkpt>
      <trkpt lat="53.164872480556369" lon="29.045090898871422">
        <ele>0</ele>
        <time>2010-01-01T10:33:52Z</time>
      </trkpt>
      <trkpt lat="53.162507778033614" lon="29.039145363494754">
        <ele>0</ele>
        <time>2010-01-01T10:36:44Z</time>
      </trkpt>
      <trkpt lat="53.162404848262668" lon="29.030776871368289">
        <ele>0</ele>
        <time>2010-01-01T10:40:04Z</time>
      </trkpt>
      <trkpt lat="53.162662088871002" lon="29.027987373992801">
        <ele>0</ele>
        <time>2010-01-01T10:41:12Z</time>
      </trkpt>
      <trkpt lat="53.15921419300139" lon="29.015112770721316">
        <ele>0</ele>
        <time>2010-01-01T10:46:51Z</time>
      </trkpt>
      <trkpt lat="53.160860985517502" lon="29.002838982269168">
        <ele>0</ele>
        <time>2010-01-01T10:51:53Z</time>
      </trkpt>
      <trkpt lat="53.164874827489257" lon="29.004383934661746">
        <ele>0</ele>
        <time>2010-01-01T10:54:37Z</time>
      </trkpt>
      <trkpt lat="53.170122569426894" lon="29.006487373262644">
        <ele>0</ele>
        <time>2010-01-01T10:58:13Z</time>
      </trkpt>
      <trkpt lat="53.171871788799763" lon="29.004642013460398">
        <ele>0</ele>
        <time>2010-01-01T10:59:36Z</time>
      </trkpt>
      <trkpt lat="53.173903981223702" lon="29.003483299165964">
        <ele>0</ele>
        <time>2010-01-01T11:01:02Z</time>
      </trkpt>
      <trkpt lat="53.175370143726468" lon="29.00133753195405">
        <ele>0</ele>
        <time>2010-01-01T11:02:20Z</time>
      </trkpt>
      <trkpt lat="53.177942298352718" lon="28.995114890858531">
        <ele>0</ele>
        <time>2010-01-01T11:05:22Z</time>
      </trkpt>
      <trkpt lat="53.178739584982395" lon="28.992454055696726">
        <ele>0</ele>
        <time>2010-01-01T11:06:33Z</time>
      </trkpt>
      <trkpt lat="53.179536955431104" lon="28.990565780550241">
        <ele>0</ele>
        <time>2010-01-01T11:07:28Z</time>
      </trkpt>
      <trkpt lat="53.182854596525431" lon="28.989793304353952">
        <ele>0</ele>
        <time>2010-01-01T11:09:43Z</time>
      </trkpt>
      <trkpt lat="53.186454959213734" lon="28.985930923372507">
        <ele>0</ele>
        <time>2010-01-01T11:12:34Z</time>
      </trkpt>
      <trkpt lat="53.194168908521533" lon="28.98112440481782">
        <ele>0</ele>
        <time>2010-01-01T11:18:04Z</time>
      </trkpt>
      <trkpt lat="53.193757524713874" lon="28.974944595247507">
        <ele>0</ele>
        <time>2010-01-01T11:20:33Z</time>
      </trkpt>
      <trkpt lat="53.193577481433749" lon="28.960610870271921">
        <ele>0</ele>
        <time>2010-01-01T11:26:16Z</time>
      </trkpt>
      <trkpt lat="53.192060524597764" lon="28.956319335848093">
        <ele>0</ele>
        <time>2010-01-01T11:28:16Z</time>
      </trkpt>
      <trkpt lat="53.191391984000802" lon="28.956319335848093">
        <ele>0</ele>
        <time>2010-01-01T11:28:43Z</time>
      </trkpt>
      <trkpt lat="53.188383551314473" lon="28.949538711458445">
        <ele>0</ele>
        <time>2010-01-01T11:32:05Z</time>
      </trkpt>
      <trkpt lat="53.188023548573256" lon="28.947822181507945">
        <ele>0</ele>
        <time>2010-01-01T11:32:49Z</time>
      </trkpt>
      <trkpt lat="53.19465740583837" lon="28.945032600313425">
        <ele>0</ele>
        <time>2010-01-01T11:37:23Z</time>
      </trkpt>
      <trkpt lat="53.198205297812819" lon="28.942586425691843">
        <ele>0</ele>
        <time>2010-01-01T11:39:56Z</time>
      </trkpt>
      <trkpt lat="53.204400530084968" lon="28.942243102937937">
        <ele>0</ele>
        <time>2010-01-01T11:44:04Z</time>
      </trkpt>
      <trkpt lat="53.208487378433347" lon="28.941470710560679">
        <ele>0</ele>
        <time>2010-01-01T11:46:49Z</time>
      </trkpt>
      <trkpt lat="53.210851913318038" lon="28.939367774873972">
        <ele>0</ele>
        <time>2010-01-01T11:48:36Z</time>
      </trkpt>
      <trkpt lat="53.21266382932663" lon="28.939947132021189">
        <ele>0</ele>
        <time>2010-01-01T11:49:50Z</time>
      </trkpt>
      <trkpt lat="53.213511910289526" lon="28.940569404512644">
        <ele>0</ele>
        <time>2010-01-01T11:50:27Z</time>
      </trkpt>
      <trkpt lat="53.215015288442373" lon="28.937436584383249">
        <ele>0</ele>
        <time>2010-01-01T11:52:03Z</time>
      </trkpt>
      <trkpt lat="53.215516358613968" lon="28.936578361317515">
        <ele>0</ele>
        <time>2010-01-01T11:52:32Z</time>
      </trkpt>
      <trkpt lat="53.216081717982888" lon="28.93642807379365">
        <ele>0</ele>
        <time>2010-01-01T11:52:55Z</time>
      </trkpt>
      <trkpt lat="53.217996144667268" lon="28.934861663728952">
        <ele>0</ele>
        <time>2010-01-01T11:54:20Z</time>
      </trkpt>
      <trkpt lat="53.219242449849844" lon="28.932801811024547">
        <ele>0</ele>
        <time>2010-01-01T11:55:31Z</time>
      </trkpt>
      <trkpt lat="53.220976833254099" lon="28.928832141682506">
        <ele>0</ele>
        <time>2010-01-01T11:57:28Z</time>
      </trkpt>
      <trkpt lat="53.219955749809742" lon="28.927684323862195">
        <ele>0</ele>
        <time>2010-01-01T11:58:18Z</time>
      </trkpt>
      <trkpt lat="53.221818627789617" lon="28.922749059274793">
        <ele>0</ele>
        <time>2010-01-01T12:00:37Z</time>
      </trkpt>
      <trkpt lat="53.221176322549582" lon="28.921525971964002">
        <ele>0</ele>
        <time>2010-01-01T12:01:16Z</time>
      </trkpt>
      <trkpt lat="53.223308930173516" lon="28.917341725900769">
        <ele>0</ele>
        <time>2010-01-01T12:03:28Z</time>
      </trkpt>
      <trkpt lat="53.226289199665189" lon="28.910432355478406">
        <ele>0</ele>
        <time>2010-01-01T12:06:52Z</time>
      </trkpt>
      <trkpt lat="53.229726534336805" lon="28.90162942931056">
        <ele>0</ele>
        <time>2010-01-01T12:11:04Z</time>
      </trkpt>
      <trkpt lat="53.231792924925685" lon="28.891866775229573">
        <ele>0</ele>
        <time>2010-01-01T12:15:12Z</time>
      </trkpt>
      <trkpt lat="53.231703070923686" lon="28.88894853182137">
        <ele>0</ele>
        <time>2010-01-01T12:16:22Z</time>
      </trkpt>
      <trkpt lat="53.239293219521642" lon="28.880494209006429">
        <ele>0</ele>
        <time>2010-01-01T12:22:27Z</time>
      </trkpt>
      <trkpt lat="53.24129649437964" lon="28.872898193076253">
        <ele>0</ele>
        <time>2010-01-01T12:25:46Z</time>
      </trkpt>
      <trkpt lat="53.243659269064665" lon="28.864186378195882">
        <ele>0</ele>
        <time>2010-01-01T12:29:35Z</time>
      </trkpt>
      <trkpt lat="53.244352620095015" lon="28.862555595114827">
        <ele>0</ele>
        <time>2010-01-01T12:30:23Z</time>
      </trkpt>
      <trkpt lat="53.246894935145974" lon="28.852921100333333">
        <ele>0</ele>
        <time>2010-01-01T12:34:36Z</time>
      </trkpt>
      <trkpt lat="53.248525550588965" lon="28.845174880698323">
        <ele>0</ele>
        <time>2010-01-01T12:37:52Z</time>
      </trkpt>
      <trkpt lat="53.248949255794287" lon="28.842471214011312">
        <ele>0</ele>
        <time>2010-01-01T12:38:59Z</time>
      </trkpt>
      <trkpt lat="53.249745285138488" lon="28.841312499716878">
        <ele>0</ele>
        <time>2010-01-01T12:39:41Z</time>
      </trkpt>
      <trkpt lat="53.250939203426242" lon="28.841441245749593">
        <ele>0</ele>
        <time>2010-01-01T12:40:29Z</time>
      </trkpt>
      <trkpt lat="53.251375732943416" lon="28.841012008488178">
        <ele>0</ele>
        <time>2010-01-01T12:40:50Z</time>
      </trkpt>
      <trkpt lat="53.254277044907212" lon="28.833995433524251">
        <ele>0</ele>
        <time>2010-01-01T12:44:14Z</time>
      </trkpt>
      <trkpt lat="53.254906106740236" lon="28.821571441367269">
        <ele>0</ele>
        <time>2010-01-01T12:49:12Z</time>
      </trkpt>
      <trkpt lat="53.25634385459125" lon="28.801830383017659">
        <ele>0</ele>
        <time>2010-01-01T12:57:09Z</time>
      </trkpt>
      <trkpt lat="53.257473483681679" lon="28.788612456992269">
        <ele>0</ele>
        <time>2010-01-01T13:02:28Z</time>
      </trkpt>
      <trkpt lat="53.266509342938662" lon="28.755653472617269">
        <ele>0</ele>
        <time>2010-01-01T13:16:57Z</time>
      </trkpt>
      <trkpt lat="53.269230024889112" lon="28.753765197470784">
        <ele>0</ele>
        <time>2010-01-01T13:18:55Z</time>
      </trkpt>
      <trkpt lat="53.275543358176947" lon="28.755138488486409">
        <ele>0</ele>
        <time>2010-01-01T13:23:09Z</time>
      </trkpt>
      <trkpt lat="53.277339600026608" lon="28.753250213339925">
        <ele>0</ele>
        <time>2010-01-01T13:24:34Z</time>
      </trkpt>
      <trkpt lat="53.287243572995067" lon="28.751533599570394">
        <ele>0</ele>
        <time>2010-01-01T13:31:13Z</time>
      </trkpt>
      <trkpt lat="53.290116805583239" lon="28.748701186850667">
        <ele>0</ele>
        <time>2010-01-01T13:33:26Z</time>
      </trkpt>
      <trkpt lat="53.291177283972502" lon="28.750268686562777">
        <ele>0</ele>
        <time>2010-01-01T13:34:23Z</time>
      </trkpt>
      <trkpt lat="53.296452686190605" lon="28.745096297934651">
        <ele>0</ele>
        <time>2010-01-01T13:38:28Z</time>
      </trkpt>
      <trkpt lat="53.297966038808227" lon="28.739259811118245">
        <ele>0</ele>
        <time>2010-01-01T13:41:00Z</time>
      </trkpt>
      <trkpt lat="53.297947347164154" lon="28.726325947791338">
        <ele>0</ele>
        <time>2010-01-01T13:46:09Z</time>
      </trkpt>
      <trkpt lat="53.297357428818941" lon="28.721390683203936">
        <ele>0</ele>
        <time>2010-01-01T13:48:10Z</time>
      </trkpt>
      <trkpt lat="53.296126211062074" lon="28.71679874137044">
        <ele>0</ele>
        <time>2010-01-01T13:50:10Z</time>
      </trkpt>
      <trkpt lat="53.297306131571531" lon="28.71104808524251">
        <ele>0</ele>
        <time>2010-01-01T13:52:36Z</time>
      </trkpt>
      <trkpt lat="53.297526324167848" lon="28.698705481365323">
        <ele>0</ele>
        <time>2010-01-01T13:57:31Z</time>
      </trkpt>
      <trkpt lat="53.303772853687406" lon="28.694001641124487">
        <ele>0</ele>
        <time>2010-01-01T14:02:05Z</time>
      </trkpt>
      <trkpt lat="53.305927002802491" lon="28.691769959405065">
        <ele>0</ele>
        <time>2010-01-01T14:03:47Z</time>
      </trkpt>
      <trkpt lat="53.306439891457558" lon="28.659583451226354">
        <ele>0</ele>
        <time>2010-01-01T14:16:37Z</time>
      </trkpt>
      <trkpt lat="53.306850185617805" lon="28.657008530572057">
        <ele>0</ele>
        <time>2010-01-01T14:17:41Z</time>
      </trkpt>
      <trkpt lat="53.30859387293458" lon="28.652502419427037">
        <ele>0</ele>
        <time>2010-01-01T14:19:49Z</time>
      </trkpt>
      <trkpt lat="53.304926874116063" lon="28.649369599297643">
        <ele>0</ele>
        <time>2010-01-01T14:22:34Z</time>
      </trkpt>
      <trkpt lat="53.306465540081263" lon="28.64370477385819">
        <ele>0</ele>
        <time>2010-01-01T14:25:03Z</time>
      </trkpt>
      <trkpt lat="53.302464941516519" lon="28.640056969597936">
        <ele>0</ele>
        <time>2010-01-01T14:28:05Z</time>
      </trkpt>
      <trkpt lat="53.303439505398273" lon="28.636580910533667">
        <ele>0</ele>
        <time>2010-01-01T14:29:37Z</time>
      </trkpt>
    </trkseg>
  </trk>

</gpx>
